createdAt,value
2023-05-08T00:01:34.205Z,100669.50
2023-05-08T00:04:36.727Z,100674.44
2023-05-08T00:07:39.190Z,100680.19
2023-05-08T00:10:41.582Z,100681.97
2023-05-08T00:13:43.753Z,100672.06
2023-05-08T00:16:46.298Z,100670.75
2023-05-08T00:19:48.920Z,100674.56
2023-05-08T00:22:51.356Z,100673.69
2023-05-08T00:25:53.467Z,100678.00
2023-05-08T00:28:56.379Z,100667.69
2023-05-08T00:31:58.623Z,100675.91
2023-05-08T00:35:01.147Z,100678.91
2023-05-08T00:38:03.366Z,100677.53
2023-05-08T00:41:05.878Z,100675.19
2023-05-08T00:44:08.365Z,100674.41
2023-05-08T00:47:11.051Z,100672.72
2023-05-08T00:50:13.889Z,100672.81
2023-05-08T00:53:17.543Z,100676.94
2023-05-08T00:56:20.824Z,100684.34
2023-05-08T00:59:24.668Z,100677.63
2023-05-08T01:02:27.475Z,100685.75
2023-05-08T01:05:30.073Z,100678.72
2023-05-08T01:08:32.625Z,100688.47
2023-05-08T01:11:44.821Z,100687.03
2023-05-08T01:14:56.589Z,100685.94
2023-05-08T01:18:10.913Z,100699.62
2023-05-08T01:21:47.535Z,100706.66
2023-05-08T01:25:23.993Z,100712.75
2023-05-08T01:28:59.528Z,100712.34
2023-05-08T01:32:16.036Z,100717.44
2023-05-08T01:35:27.888Z,100720.97
2023-05-08T01:38:51.820Z,100718.06
2023-05-08T01:42:01.216Z,100720.53
2023-05-08T01:45:13.868Z,100721.06
2023-05-08T01:48:24.641Z,100724.19
2023-05-08T01:51:31.039Z,100726.19
2023-05-08T01:54:43.214Z,100726.97
2023-05-08T01:57:49.177Z,100721.47
2023-05-08T02:00:53.051Z,100731.66
2023-05-08T02:03:57.357Z,100732.03
2023-05-08T02:07:00.938Z,100731.63
2023-05-08T02:10:04.534Z,100729.91
2023-05-08T02:13:08.797Z,100739.00
2023-05-08T02:16:12.638Z,100739.38
2023-05-08T02:19:16.248Z,100740.97
2023-05-08T02:22:21.488Z,100742.78
2023-05-08T02:25:25.518Z,100746.47
2023-05-08T02:28:29.918Z,100743.84
2023-05-08T02:31:35.528Z,100747.41
2023-05-08T02:34:41.028Z,100757.72
2023-05-08T02:37:52.134Z,100749.37
2023-05-08T02:40:57.533Z,100751.28
2023-05-08T02:44:01.078Z,100748.28
2023-05-08T02:47:12.320Z,100740.47
2023-05-08T02:50:43.491Z,100745.87
2023-05-08T02:53:52.201Z,100744.63
2023-05-08T02:56:59.934Z,100749.28
2023-05-08T03:00:14.186Z,100754.75
2023-05-08T03:03:49.892Z,100751.78
2023-05-08T03:06:56.908Z,100759.13
2023-05-08T03:10:03.952Z,100760.38
2023-05-08T03:13:09.407Z,100754.19
2023-05-08T03:16:17.542Z,100760.38
2023-05-08T03:19:27.306Z,100754.88
2023-05-08T03:22:32.530Z,100759.84
2023-05-08T03:25:35.993Z,100765.72
2023-05-08T03:28:39.590Z,100757.12
2023-05-08T03:31:43.664Z,100756.69
2023-05-08T03:34:47.636Z,100764.28
2023-05-08T03:37:50.241Z,100759.66
2023-05-08T03:40:53.174Z,100760.75
2023-05-08T03:43:56.227Z,100755.59
2023-05-08T03:47:00.287Z,100761.44
2023-05-08T03:50:03.153Z,100763.47
2023-05-08T03:53:05.688Z,100764.00
2023-05-08T03:56:08.593Z,100761.88
2023-05-08T03:59:29.967Z,100765.25
2023-05-08T04:02:47.508Z,100765.97
2023-05-08T04:05:56.590Z,100766.97
2023-05-08T04:09:05.796Z,100769.66
2023-05-08T04:12:32.344Z,100772.84
2023-05-08T04:15:39.325Z,100780.75
2023-05-08T04:18:46.288Z,100779.06
2023-05-08T04:21:51.055Z,100779.84
2023-05-08T04:24:59.261Z,100785.00
2023-05-08T04:28:02.586Z,100789.06
2023-05-08T04:31:06.042Z,100792.28
2023-05-08T04:34:09.325Z,100799.66
2023-05-08T04:37:26.639Z,100802.22
2023-05-08T04:40:29.427Z,100798.78
2023-05-08T04:43:32.425Z,100808.06
2023-05-08T04:46:35.036Z,100811.53
2023-05-08T04:49:37.807Z,100819.66
2023-05-08T04:52:39.962Z,100826.44
2023-05-08T04:55:43.400Z,100828.94
2023-05-08T04:58:45.818Z,100829.78
2023-05-08T05:01:48.819Z,100828.59
2023-05-08T05:04:51.247Z,100834.28
2023-05-08T05:07:53.768Z,100837.22
2023-05-08T05:10:56.078Z,100838.91
2023-05-08T05:13:58.838Z,100841.25
2023-05-08T05:17:01.417Z,100842.16
2023-05-08T05:20:06.166Z,100837.03
2023-05-08T05:23:08.456Z,100841.63
2023-05-08T05:26:11.384Z,100841.38
2023-05-08T05:29:13.852Z,100848.16
2023-05-08T05:32:16.817Z,100847.06
2023-05-08T05:35:19.048Z,100849.41
2023-05-08T05:38:21.780Z,100851.50
2023-05-08T05:41:24.372Z,100850.78
2023-05-08T05:44:27.457Z,100855.91
2023-05-08T05:47:30.069Z,100864.53
2023-05-08T05:50:33.015Z,100862.00
2023-05-08T05:53:35.453Z,100869.62
2023-05-08T05:56:38.132Z,100876.25
2023-05-08T05:59:41.016Z,100874.06
2023-05-08T06:02:44.049Z,100875.66
2023-05-08T06:05:47.616Z,100872.84
2023-05-08T06:08:49.853Z,100872.34
2023-05-08T06:11:52.717Z,100873.22
2023-05-08T06:14:55.515Z,100875.94
2023-05-08T06:17:58.179Z,100867.31
2023-05-08T06:21:00.741Z,100871.94
2023-05-08T06:24:03.650Z,100869.75
2023-05-08T06:27:05.890Z,100875.03
2023-05-08T06:30:10.548Z,100872.84
2023-05-08T06:33:12.697Z,100874.81
2023-05-08T06:36:15.696Z,100877.63
2023-05-08T06:39:18.346Z,100869.81
2023-05-08T06:42:21.077Z,100878.03
2023-05-08T06:45:23.244Z,100879.84
2023-05-08T06:48:29.020Z,100886.38
2023-05-08T06:51:31.523Z,100890.47
2023-05-08T06:54:34.062Z,100884.63
2023-05-08T06:57:36.294Z,100889.50
2023-05-08T07:00:38.852Z,100892.16
2023-05-08T07:03:41.687Z,100891.53
2023-05-08T07:06:44.152Z,100889.28
2023-05-08T07:09:46.310Z,100898.75
2023-05-08T07:12:49.660Z,100906.00
2023-05-08T07:15:52.321Z,100907.56
2023-05-08T07:18:54.950Z,100907.81
2023-05-08T07:21:57.192Z,100905.47
2023-05-08T07:24:59.832Z,100903.06
2023-05-08T07:28:02.049Z,100913.06
2023-05-08T07:31:09.041Z,100903.97
2023-05-08T07:34:11.285Z,100901.63
2023-05-08T07:37:14.130Z,100906.16
2023-05-08T07:40:16.488Z,100901.22
2023-05-08T07:43:18.899Z,100895.16
2023-05-08T07:46:21.793Z,100899.31
2023-05-08T07:49:24.527Z,100902.31
2023-05-08T07:52:26.880Z,100903.31
2023-05-08T07:55:29.551Z,100904.56
2023-05-08T07:58:31.789Z,100898.59
2023-05-08T08:01:34.392Z,100904.00
2023-05-08T08:04:36.851Z,100897.87
2023-05-08T08:07:39.243Z,100900.47
2023-05-08T08:10:41.689Z,100904.87
2023-05-08T08:13:43.881Z,100904.87
2023-05-08T08:16:46.733Z,100893.03
2023-05-08T08:19:48.971Z,100895.09
2023-05-08T08:22:51.524Z,100896.56
2023-05-08T08:25:54.269Z,100893.84
2023-05-08T08:28:56.694Z,100897.69
2023-05-08T08:31:58.997Z,100899.22
2023-05-08T08:35:02.079Z,100890.66
2023-05-08T08:38:04.284Z,100898.00
2023-05-08T08:41:07.181Z,100878.28
2023-05-08T08:44:09.668Z,100877.16
2023-05-08T08:47:14.769Z,100891.44
2023-05-08T08:50:20.055Z,100899.69
2023-05-08T08:53:27.498Z,100892.00
2023-05-08T08:56:31.313Z,100894.50
2023-05-08T08:59:34.784Z,100891.47
2023-05-08T09:02:37.113Z,100888.03
2023-05-08T09:05:40.161Z,100888.28
2023-05-08T09:08:42.693Z,100888.34
2023-05-08T09:11:46.947Z,100884.56
2023-05-08T09:17:52.582Z,100880.03
2023-05-08T09:20:55.069Z,100879.25
2023-05-08T09:24:02.595Z,100867.37
2023-05-08T09:27:20.756Z,100882.00
2023-05-08T09:30:23.228Z,100877.53
2023-05-08T09:33:27.664Z,100872.34
2023-05-08T09:36:32.048Z,100876.12
2023-05-08T09:39:34.691Z,100874.31
2023-05-08T09:42:40.332Z,100865.75
2023-05-08T09:45:42.723Z,100865.53
2023-05-08T09:48:47.929Z,100869.97
2023-05-08T09:55:09.198Z,100866.34
2023-05-08T09:58:11.484Z,100866.22
2023-05-08T10:01:32.629Z,100861.63
2023-05-08T10:04:36.627Z,100864.53
2023-05-08T10:07:38.885Z,100858.59
2023-05-08T10:10:41.459Z,100862.81
2023-05-08T10:13:47.232Z,100861.50
2023-05-08T10:16:53.194Z,100849.38
2023-05-08T10:20:00.250Z,100849.72
2023-05-08T10:23:03.624Z,100853.13
2023-05-08T10:26:23.536Z,100835.72
2023-05-08T10:32:44.197Z,100839.81
2023-05-08T10:38:50.243Z,100839.03
2023-05-08T10:41:53.007Z,100824.47
2023-05-08T10:44:56.190Z,100832.72
2023-05-08T10:48:17.454Z,100834.72
2023-05-08T10:51:42.612Z,100834.03
2023-05-08T10:55:09.407Z,100825.94
2023-05-08T10:58:12.882Z,100817.13
2023-05-08T11:01:16.664Z,100817.84
2023-05-08T11:04:24.934Z,100819.06
2023-05-08T11:07:51.019Z,100808.69
2023-05-08T11:11:02.136Z,100813.88
2023-05-08T11:14:07.656Z,100808.19
2023-05-08T11:17:10.945Z,100802.84
2023-05-08T11:20:13.731Z,100807.03
2023-05-08T11:23:27.290Z,100808.62
2023-05-08T11:26:42.138Z,100806.31
2023-05-08T11:29:45.108Z,100794.75
2023-05-08T11:33:14.425Z,100801.91
2023-05-08T11:36:22.972Z,100791.06
2023-05-08T11:39:25.468Z,100796.25
2023-05-08T11:42:27.580Z,100788.03
2023-05-08T11:45:30.901Z,100787.25
2023-05-08T11:48:34.070Z,100787.44
2023-05-08T11:51:38.432Z,100786.56
2023-05-08T11:54:40.696Z,100792.25
2023-05-08T11:57:43.112Z,100786.69
2023-05-08T12:00:47.337Z,100789.44
2023-05-08T12:04:00.587Z,100777.66
2023-05-08T12:07:02.933Z,100781.59
2023-05-08T12:10:06.129Z,100786.34
2023-05-08T12:13:21.438Z,100780.78
2023-05-08T12:16:25.417Z,100787.00
2023-05-08T12:19:27.601Z,100780.56
2023-05-08T12:22:30.169Z,100787.88
2023-05-08T12:25:32.425Z,100784.00
2023-05-08T12:28:34.883Z,100773.25
2023-05-08T12:31:37.796Z,100768.44
2023-05-08T12:34:40.398Z,100782.00
2023-05-08T12:37:42.835Z,100776.19
2023-05-08T12:40:49.122Z,100787.66
2023-05-08T12:43:51.399Z,100781.31
2023-05-08T12:46:55.932Z,100783.22
2023-05-08T12:49:58.293Z,100781.81
2023-05-08T12:53:04.939Z,100778.72
2023-05-08T12:56:07.639Z,100793.06
2023-05-08T12:59:10.204Z,100783.47
2023-05-08T13:02:17.571Z,100775.22
2023-05-08T13:05:23.660Z,100781.56
2023-05-08T13:08:32.552Z,100790.59
2023-05-08T13:11:35.123Z,100774.16
2023-05-08T13:14:37.308Z,100772.69
2023-05-08T13:17:39.933Z,100769.59
2023-05-08T13:20:43.309Z,100775.87
2023-05-08T13:23:46.044Z,100778.44
2023-05-08T13:26:48.276Z,100777.34
2023-05-08T13:29:50.780Z,100784.91
2023-05-08T13:32:53.783Z,100780.00
2023-05-08T13:35:56.275Z,100773.31
2023-05-08T13:38:58.406Z,100772.03
2023-05-08T13:42:00.872Z,100782.37
2023-05-08T13:45:04.886Z,100779.87
2023-05-08T13:48:07.427Z,100768.44
2023-05-08T13:51:09.570Z,100774.03
2023-05-08T13:54:11.970Z,100771.19
2023-05-08T13:57:14.300Z,100769.09
2023-05-08T14:00:17.148Z,100781.25
2023-05-08T14:03:19.245Z,100773.56
2023-05-08T14:06:21.756Z,100781.84
2023-05-08T14:09:24.049Z,100780.56
2023-05-08T14:12:26.659Z,100788.03
2023-05-08T14:15:36.516Z,100788.59
2023-05-08T14:18:40.345Z,100785.91
2023-05-08T14:21:43.852Z,100780.38
2023-05-08T14:24:46.346Z,100785.44
2023-05-08T14:27:48.493Z,100793.75
2023-05-08T14:30:50.996Z,100786.19
2023-05-08T14:33:53.154Z,100787.50
2023-05-08T14:36:55.755Z,100783.22
2023-05-08T14:39:59.374Z,100793.53
2023-05-08T14:43:01.848Z,100790.00
2023-05-08T14:46:04.158Z,100799.34
2023-05-08T14:49:06.714Z,100793.63
2023-05-08T14:52:08.925Z,100786.09
2023-05-08T14:55:12.137Z,100788.78
2023-05-08T14:58:14.520Z,100781.06
2023-05-08T15:01:17.534Z,100782.94
2023-05-08T15:04:19.770Z,100781.91
2023-05-08T15:07:22.318Z,100788.84
2023-05-08T15:10:24.579Z,100784.53
2023-05-08T15:13:27.293Z,100787.78
2023-05-08T15:16:30.121Z,100791.59
2023-05-08T15:19:32.556Z,100785.03
2023-05-08T15:22:34.818Z,100786.75
2023-05-08T15:25:37.262Z,100782.37
2023-05-08T15:28:41.237Z,100778.53
2023-05-08T15:31:43.690Z,100781.78
2023-05-08T15:34:45.893Z,100785.53
2023-05-08T15:37:48.349Z,100783.34
2023-05-08T15:40:50.539Z,100791.91
2023-05-08T15:43:53.099Z,100778.09
2023-05-08T15:46:55.206Z,100790.75
2023-05-08T15:49:57.614Z,100784.75
2023-05-08T15:53:00.078Z,100778.84
2023-05-08T15:56:05.703Z,100779.81
2023-05-08T15:59:07.860Z,100780.03
2023-05-08T16:02:10.432Z,100779.50
2023-05-08T16:05:13.072Z,100778.59
2023-05-08T16:08:15.555Z,100779.47
2023-05-08T16:11:18.092Z,100777.88
2023-05-08T16:14:20.351Z,100778.22
2023-05-08T16:17:23.005Z,100779.34
2023-05-08T16:20:25.497Z,100779.13
2023-05-08T16:23:28.058Z,100773.56
2023-05-08T16:26:30.219Z,100779.44
2023-05-08T16:29:32.605Z,100797.31
2023-05-08T16:32:34.738Z,100787.69
2023-05-08T16:35:37.288Z,100793.28
2023-05-08T16:38:39.483Z,100799.84
2023-05-08T16:41:41.993Z,100800.53
2023-05-08T16:44:44.359Z,100801.91
2023-05-08T16:47:46.808Z,100802.63
2023-05-08T16:50:49.001Z,100813.69
2023-05-08T16:53:51.487Z,100814.75
2023-05-08T16:56:53.691Z,100824.78
2023-05-08T16:59:56.253Z,100823.06
2023-05-08T17:02:58.586Z,100838.16
2023-05-08T17:06:05.787Z,100840.69
2023-05-08T17:09:08.012Z,100844.25
2023-05-08T17:12:10.690Z,100854.41
2023-05-08T17:15:13.129Z,100862.19
2023-05-08T17:18:15.937Z,100862.88
2023-05-08T17:21:18.117Z,100875.47
2023-05-08T17:24:20.579Z,100876.94
2023-05-08T17:27:22.779Z,100884.69
2023-05-08T17:30:26.336Z,100890.44
2023-05-08T17:33:28.898Z,100899.47
2023-05-08T17:36:31.343Z,100904.91
2023-05-08T17:39:33.472Z,100912.91
2023-05-08T17:42:36.120Z,100911.50
2023-05-08T17:45:38.568Z,100920.06
2023-05-08T17:48:41.085Z,100926.69
2023-05-08T17:51:43.393Z,100935.94
2023-05-08T17:54:45.967Z,100939.84
2023-05-08T17:57:48.199Z,100942.97
2023-05-08T18:00:50.822Z,100956.19
2023-05-08T18:03:53.755Z,100962.94
2023-05-08T18:06:56.007Z,100968.13
2023-05-08T18:09:58.411Z,100969.28
2023-05-08T18:13:00.643Z,100978.41
2023-05-08T18:16:03.232Z,100980.16
2023-05-08T18:19:05.458Z,100984.31
2023-05-08T18:22:08.101Z,100995.72
2023-05-08T18:25:10.993Z,100995.06
2023-05-08T18:28:13.436Z,101011.03
2023-05-08T18:31:16.549Z,101012.12
2023-05-08T18:34:19.087Z,101013.25
2023-05-08T18:37:21.257Z,101022.22
2023-05-08T18:40:23.702Z,101024.31
2023-05-08T18:43:25.920Z,101026.81
2023-05-08T18:46:28.448Z,101024.88
2023-05-08T18:49:31.192Z,101031.09
2023-05-08T18:52:34.162Z,101039.63
2023-05-08T18:55:36.841Z,101038.84
2023-05-08T18:58:39.465Z,101047.41
2023-05-08T19:01:41.596Z,101052.03
2023-05-08T19:04:44.205Z,101048.72
2023-05-08T19:07:46.426Z,101053.22
2023-05-08T19:10:48.897Z,101062.81
2023-05-08T19:13:51.805Z,101065.41
2023-05-08T19:16:56.947Z,101066.81
2023-05-08T19:20:00.465Z,101065.28
2023-05-08T19:23:02.942Z,101069.59
2023-05-08T19:26:05.288Z,101073.84
2023-05-08T19:29:07.738Z,101080.09
2023-05-08T19:32:09.903Z,101076.78
2023-05-08T19:35:12.483Z,101077.25
2023-05-08T19:38:15.271Z,101078.84
2023-05-08T19:41:17.948Z,101074.91
2023-05-08T19:44:20.160Z,101091.47
2023-05-08T19:47:22.678Z,101090.78
2023-05-08T19:50:25.003Z,101084.06
2023-05-08T19:53:27.430Z,101097.66
2023-05-08T19:56:29.609Z,101092.91
2023-05-08T19:59:32.055Z,101089.72
2023-05-08T20:02:34.420Z,101092.81
2023-05-08T20:05:36.875Z,101097.22
2023-05-08T20:08:39.146Z,101099.97
2023-05-08T20:11:41.652Z,101091.84
2023-05-08T20:14:43.948Z,101097.87
2023-05-08T20:17:46.397Z,101097.56
2023-05-08T20:20:48.662Z,101089.62
2023-05-08T20:23:51.082Z,101086.12
2023-05-08T20:26:56.067Z,101086.91
2023-05-08T20:29:58.794Z,101092.16
2023-05-08T20:33:04.802Z,101093.56
2023-05-08T20:36:07.730Z,101086.62
2023-05-08T20:39:09.844Z,101093.84
2023-05-08T20:42:12.609Z,101096.88
2023-05-08T20:45:15.167Z,101091.94
2023-05-08T20:48:17.694Z,101089.06
2023-05-08T20:51:19.842Z,101092.97
2023-05-08T20:54:22.379Z,101087.53
2023-05-08T20:57:25.158Z,101085.81
2023-05-08T21:00:27.716Z,101087.81
2023-05-08T21:03:29.871Z,101090.13
2023-05-08T21:06:32.254Z,101091.41
2023-05-08T21:09:34.455Z,101076.38
2023-05-08T21:12:36.961Z,101081.44
2023-05-08T21:15:39.125Z,101082.56
2023-05-08T21:18:41.569Z,101087.69
2023-05-08T21:21:44.869Z,101077.22
2023-05-08T21:24:47.340Z,101076.22
2023-05-08T21:27:49.752Z,101087.66
2023-05-08T21:30:52.184Z,101087.50
2023-05-08T21:33:54.305Z,101086.44
2023-05-08T21:36:56.738Z,101082.50
2023-05-08T21:39:58.971Z,101094.97
2023-05-08T21:43:01.376Z,101078.72
2023-05-08T21:46:05.470Z,101077.47
2023-05-08T21:49:08.097Z,101072.50
2023-05-08T21:52:10.259Z,101070.34
2023-05-08T21:55:12.925Z,101074.16
2023-05-08T21:58:15.298Z,101066.63
2023-05-08T22:01:17.819Z,101071.22
2023-05-08T22:04:20.725Z,101067.22
2023-05-08T22:07:22.949Z,101062.09
2023-05-08T22:10:25.872Z,101069.44
2023-05-08T22:13:30.450Z,101062.38
2023-05-08T22:16:32.962Z,101070.09
2023-05-08T22:19:35.348Z,101068.41
2023-05-08T22:22:37.838Z,101067.09
2023-05-08T22:25:39.968Z,101065.84
2023-05-08T22:28:42.431Z,101060.25
2023-05-08T22:31:45.577Z,101061.53
2023-05-08T22:34:49.864Z,101051.50
2023-05-08T22:37:52.862Z,101048.00
2023-05-08T22:40:57.391Z,101047.00
2023-05-08T22:43:59.692Z,101050.06
2023-05-08T22:47:02.546Z,101054.66
2023-05-08T22:50:08.499Z,101056.44
2023-05-08T22:53:11.011Z,101053.22
2023-05-08T22:56:14.648Z,101050.25
2023-05-08T22:59:17.105Z,101055.22
2023-05-08T23:02:19.337Z,101054.13
2023-05-08T23:05:22.468Z,101053.69
2023-05-08T23:08:24.675Z,101053.87
2023-05-08T23:11:27.615Z,101047.91
2023-05-08T23:14:29.860Z,101064.00
2023-05-08T23:17:32.313Z,101051.84
2023-05-08T23:20:34.481Z,101052.28
2023-05-08T23:23:37.054Z,101044.97
2023-05-08T23:26:41.880Z,101054.19
2023-05-08T23:29:44.551Z,101047.53
2023-05-08T23:32:46.906Z,101048.13
2023-05-08T23:35:49.432Z,101046.72
2023-05-08T23:38:51.672Z,101054.53
2023-05-08T23:41:54.506Z,101046.84
2023-05-08T23:44:56.608Z,101046.03
2023-05-08T23:47:59.130Z,101039.41
2023-05-08T23:51:01.395Z,101037.72
2023-05-08T23:54:04.645Z,101034.00
2023-05-08T23:57:06.891Z,101030.88
